createdAt,value
2023-05-12T00:00:44.111Z,180.47
2023-05-12T00:01:44.129Z,180.51
2023-05-12T00:02:44.283Z,180.93
2023-05-12T00:03:44.490Z,180.56
2023-05-12T00:04:44.148Z,180.25
2023-05-12T00:05:44.143Z,182.29
2023-05-12T00:06:44.142Z,181.67
2023-05-12T00:07:44.133Z,185.21
2023-05-12T00:08:44.133Z,182.58
2023-05-12T00:09:44.148Z,182.09
2023-05-12T00:10:44.169Z,180.27
2023-05-12T00:11:44.149Z,182.23
2023-05-12T00:12:44.166Z,181.51
2023-05-12T00:13:44.235Z,184.02
2023-05-12T00:14:44.189Z,184.76
2023-05-12T00:15:44.222Z,183.20
2023-05-12T00:16:44.263Z,184.91
2023-05-12T00:17:44.211Z,181.21
2023-05-12T00:18:44.256Z,180.69
2023-05-12T00:19:44.209Z,182.34
2023-05-12T00:20:44.226Z,181.66
2023-05-12T00:21:44.251Z,182.00
2023-05-12T00:22:44.279Z,182.79
2023-05-12T00:23:44.260Z,180.96
2023-05-12T00:24:44.280Z,180.28
2023-05-12T00:25:44.301Z,183.15
2023-05-12T00:26:44.297Z,182.07
2023-05-12T00:27:44.315Z,183.68
2023-05-12T00:28:44.338Z,181.25
2023-05-12T00:29:44.334Z,179.69
2023-05-12T00:30:44.346Z,181.05
2023-05-12T00:31:44.421Z,180.45
2023-05-12T00:32:44.451Z,179.06
2023-05-12T00:33:44.373Z,179.53
2023-05-12T00:34:44.384Z,181.41
2023-05-12T00:35:44.396Z,180.39
2023-05-12T00:36:44.404Z,180.99
2023-05-12T00:37:44.440Z,181.92
2023-05-12T00:38:44.419Z,182.79
2023-05-12T00:39:44.447Z,182.00
2023-05-12T00:40:44.459Z,182.82
2023-05-12T00:41:44.460Z,183.05
2023-05-12T00:42:44.483Z,184.42
2023-05-12T00:43:44.470Z,184.88
2023-05-12T00:44:44.489Z,183.61
2023-05-12T00:45:44.569Z,184.67
2023-05-12T00:46:44.506Z,185.79
2023-05-12T00:47:44.533Z,184.21
2023-05-12T00:48:44.541Z,184.98
2023-05-12T00:49:44.544Z,186.12
2023-05-12T00:50:44.551Z,186.13
2023-05-12T00:51:44.569Z,185.16
2023-05-12T00:52:44.576Z,186.06
2023-05-12T00:53:50.037Z,186.32
2023-05-12T00:54:45.587Z,186.36
2023-05-12T00:55:44.566Z,184.90
2023-05-12T00:56:44.588Z,186.04
2023-05-12T00:57:44.599Z,186.69
2023-05-12T00:58:44.540Z,187.42
2023-05-12T00:59:44.538Z,186.76
2023-05-12T01:00:44.529Z,186.38
2023-05-12T01:01:44.547Z,184.96
2023-05-12T01:02:44.584Z,185.94
2023-05-12T01:03:44.500Z,186.44
2023-05-12T01:04:44.498Z,186.82
2023-05-12T01:05:44.485Z,188.11
2023-05-12T01:06:44.472Z,187.92
2023-05-12T01:07:44.471Z,187.80
2023-05-12T01:08:44.469Z,188.00
2023-05-12T01:09:44.474Z,186.97
2023-05-12T01:10:44.473Z,187.17
2023-05-12T01:11:44.491Z,186.55
2023-05-12T01:12:44.464Z,185.36
2023-05-12T01:13:44.428Z,186.48
2023-05-12T01:14:44.434Z,186.57
2023-05-12T01:15:44.430Z,189.97
2023-05-12T01:16:44.456Z,187.03
2023-05-12T01:17:44.560Z,186.57
2023-05-12T01:18:44.447Z,187.27
2023-05-12T01:19:44.393Z,188.56
2023-05-12T01:20:44.379Z,188.06
2023-05-12T01:21:44.437Z,187.58
2023-05-12T01:22:44.372Z,188.10
2023-05-12T01:23:44.362Z,187.63
2023-05-12T01:24:44.366Z,186.56
2023-05-12T01:25:44.352Z,186.15
2023-05-12T01:26:44.354Z,185.07
2023-05-12T01:27:44.337Z,186.94
2023-05-12T01:28:44.342Z,188.83
2023-05-12T01:29:44.314Z,187.90
2023-05-12T01:30:44.356Z,185.54
2023-05-12T01:31:44.393Z,187.78
2023-05-12T01:32:44.367Z,189.52
2023-05-12T01:33:44.350Z,187.59
2023-05-12T01:34:44.405Z,188.85
2023-05-12T01:35:44.424Z,187.98
2023-05-12T01:36:44.397Z,188.17
2023-05-12T01:37:44.390Z,188.58
2023-05-12T01:38:44.402Z,187.33
2023-05-12T01:39:44.395Z,190.81
2023-05-12T01:40:44.416Z,191.73
2023-05-12T01:41:44.417Z,192.04
2023-05-12T01:42:44.422Z,192.25
2023-05-12T01:43:44.442Z,190.94
2023-05-12T01:44:44.430Z,189.40
2023-05-12T01:45:44.452Z,190.66
2023-05-12T01:46:44.468Z,189.80
2023-05-12T01:47:44.477Z,193.55
2023-05-12T01:48:44.491Z,191.45
2023-05-12T01:49:44.485Z,191.65
2023-05-12T01:50:44.497Z,191.42
2023-05-12T01:51:44.515Z,192.90
2023-05-12T01:52:44.527Z,190.79
2023-05-12T01:53:44.539Z,193.11
2023-05-12T01:54:44.535Z,193.43
2023-05-12T01:55:44.546Z,192.82
2023-05-12T01:56:44.557Z,193.21
2023-05-12T01:57:44.580Z,192.49
2023-05-12T01:58:44.617Z,191.90
2023-05-12T01:59:44.570Z,191.40
2023-05-12T02:00:44.580Z,194.12
2023-05-12T02:01:44.684Z,193.56
2023-05-12T02:02:44.652Z,193.61
2023-05-12T02:03:44.672Z,193.56
2023-05-12T02:04:44.639Z,192.51
2023-05-12T02:05:44.645Z,194.21
2023-05-12T02:06:44.664Z,193.63
2023-05-12T02:07:44.665Z,194.17
2023-05-12T02:08:44.704Z,193.81
2023-05-12T02:09:44.700Z,194.46
2023-05-12T02:10:44.721Z,194.25
2023-05-12T02:11:44.709Z,195.31
2023-05-12T02:12:44.733Z,193.47
2023-05-12T02:13:44.737Z,191.59
2023-05-12T02:14:44.747Z,190.88
2023-05-12T02:15:44.772Z,189.71
2023-05-12T02:16:44.792Z,189.13
2023-05-12T02:17:44.844Z,186.58
2023-05-12T02:18:44.828Z,186.99
2023-05-12T02:19:44.806Z,186.27
2023-05-12T02:20:44.828Z,184.55
2023-05-12T02:21:44.864Z,183.09
2023-05-12T02:22:44.865Z,184.09
2023-05-12T02:23:44.869Z,184.12
2023-05-12T02:24:44.856Z,184.90
2023-05-12T02:25:44.877Z,183.64
2023-05-12T02:26:44.907Z,183.73
2023-05-12T02:27:44.921Z,181.26
2023-05-12T02:28:44.933Z,180.18
2023-05-12T02:29:44.929Z,178.98
2023-05-12T02:30:44.951Z,180.82
2023-05-12T02:31:44.992Z,177.63
2023-05-12T02:32:45.003Z,175.55
2023-05-12T02:33:44.982Z,177.50
2023-05-12T02:34:44.979Z,174.24
2023-05-12T02:35:44.990Z,176.40
2023-05-12T02:36:45.024Z,174.75
2023-05-12T02:37:45.009Z,172.79
2023-05-12T02:38:45.046Z,174.98
2023-05-12T02:39:45.052Z,177.30
2023-05-12T02:40:45.058Z,172.91
2023-05-12T02:41:45.094Z,171.79
2023-05-12T02:42:45.098Z,173.03
2023-05-12T02:43:45.119Z,170.90
2023-05-12T02:44:45.127Z,168.25
2023-05-12T02:45:45.200Z,169.90
2023-05-12T02:46:45.137Z,170.57
2023-05-12T02:47:45.238Z,167.05
2023-05-12T02:48:45.165Z,168.97
2023-05-12T02:49:45.176Z,167.64
2023-05-12T02:50:45.183Z,165.69
2023-05-12T02:51:45.195Z,165.78
2023-05-12T02:52:45.241Z,165.22
2023-05-12T02:53:45.246Z,164.66
2023-05-12T02:54:45.255Z,164.68
2023-05-12T02:55:45.271Z,162.22
2023-05-12T02:56:45.276Z,164.05
2023-05-12T02:57:45.298Z,162.09
2023-05-12T02:58:45.446Z,161.83
2023-05-12T02:59:45.332Z,161.99
2023-05-12T03:00:45.409Z,159.33
2023-05-12T03:01:45.403Z,159.80
2023-05-12T03:02:45.401Z,159.99
2023-05-12T03:03:45.633Z,156.17
2023-05-12T03:04:45.434Z,156.76
2023-05-12T03:05:45.424Z,157.75
2023-05-12T03:06:45.440Z,156.95
2023-05-12T03:07:45.444Z,158.33
2023-05-12T03:08:45.464Z,154.32
2023-05-12T03:09:45.486Z,154.10
2023-05-12T03:10:45.487Z,156.99
2023-05-12T03:11:45.524Z,155.44
2023-05-12T03:12:45.545Z,154.32
2023-05-12T03:13:45.553Z,153.99
2023-05-12T03:14:45.561Z,153.21
2023-05-12T03:15:45.556Z,154.85
2023-05-12T03:16:45.632Z,153.56
2023-05-12T03:17:45.624Z,154.37
2023-05-12T03:18:45.643Z,154.37
2023-05-12T03:19:45.619Z,153.92
2023-05-12T03:20:45.641Z,155.58
2023-05-12T03:21:45.647Z,154.30
2023-05-12T03:22:45.661Z,153.87
2023-05-12T03:23:45.674Z,153.25
2023-05-12T03:24:45.693Z,155.82
2023-05-12T03:25:45.720Z,154.18
2023-05-12T03:26:45.752Z,153.20
2023-05-12T03:27:45.767Z,151.88
2023-05-12T03:28:45.793Z,152.93
2023-05-12T03:29:45.804Z,152.92
2023-05-12T03:30:45.871Z,151.30
2023-05-12T03:31:45.876Z,153.02
2023-05-12T03:32:45.893Z,153.45
2023-05-12T03:33:45.896Z,149.60
2023-05-12T03:34:45.926Z,152.42
2023-05-12T03:35:45.957Z,149.17
2023-05-12T03:36:45.970Z,151.04
2023-05-12T03:37:45.984Z,149.61
2023-05-12T03:38:45.975Z,150.93
2023-05-12T03:39:46.001Z,151.59
2023-05-12T03:40:46.026Z,151.23
2023-05-12T03:41:46.037Z,151.78
2023-05-12T03:42:46.071Z,147.91
2023-05-12T03:43:46.061Z,149.95
2023-05-12T03:44:46.094Z,152.27
2023-05-12T03:45:46.101Z,151.82
2023-05-12T03:46:46.167Z,152.20
2023-05-12T03:47:46.231Z,151.98
2023-05-12T03:48:46.146Z,151.09
2023-05-12T03:49:46.148Z,151.97
2023-05-12T03:50:46.157Z,150.76
2023-05-12T03:51:46.165Z,152.96
2023-05-12T03:52:46.189Z,150.94
2023-05-12T03:53:46.280Z,153.81
2023-05-12T03:54:46.234Z,154.41
2023-05-12T03:55:46.231Z,153.85
2023-05-12T03:56:46.264Z,153.29
2023-05-12T03:57:46.280Z,151.08
2023-05-12T03:58:46.278Z,152.75
2023-05-12T03:59:46.291Z,151.99
2023-05-12T04:00:46.306Z,153.03
2023-05-12T04:01:46.401Z,152.76
2023-05-12T04:02:46.494Z,153.14
2023-05-12T04:03:46.454Z,154.55
2023-05-12T04:04:46.370Z,154.26
2023-05-12T04:05:46.408Z,153.87
2023-05-12T04:06:46.439Z,153.23
2023-05-12T04:07:46.432Z,154.00
2023-05-12T04:08:46.457Z,153.68
2023-05-12T04:09:46.453Z,151.58
2023-05-12T04:10:46.497Z,153.35
2023-05-12T04:11:46.517Z,155.60
2023-05-12T04:12:46.523Z,153.92
2023-05-12T04:13:46.554Z,155.88
2023-05-12T04:14:46.544Z,155.50
2023-05-12T04:15:46.576Z,154.29
2023-05-12T04:16:46.637Z,155.87
2023-05-12T04:17:46.642Z,155.00
2023-05-12T04:18:46.709Z,156.93
2023-05-12T04:19:46.651Z,156.60
2023-05-12T04:20:46.655Z,157.74
2023-05-12T04:21:46.720Z,155.50
2023-05-12T04:22:46.691Z,157.84
2023-05-12T04:23:46.742Z,157.61
2023-05-12T04:24:46.715Z,156.66
2023-05-12T04:25:46.713Z,157.79
2023-05-12T04:26:46.742Z,161.58
2023-05-12T04:27:46.749Z,160.98
2023-05-12T04:28:46.749Z,160.75
2023-05-12T04:29:46.826Z,161.94
2023-05-12T04:30:46.788Z,163.20
2023-05-12T04:31:46.869Z,163.21
2023-05-12T04:32:46.938Z,162.57
2023-05-12T04:33:48.335Z,164.52
2023-05-12T04:34:46.939Z,164.80
2023-05-12T04:35:46.878Z,166.68
2023-05-12T04:36:46.893Z,165.77
2023-05-12T04:37:46.899Z,166.25
2023-05-12T04:38:46.914Z,167.30
2023-05-12T04:39:46.955Z,166.37
2023-05-12T04:40:46.956Z,166.44
2023-05-12T04:41:46.966Z,164.52
2023-05-12T04:42:46.969Z,167.68
2023-05-12T04:44:46.971Z,168.10
2023-05-12T04:45:46.996Z,167.97
2023-05-12T04:46:46.976Z,169.56
2023-05-12T04:47:46.999Z,168.52
2023-05-12T04:48:46.971Z,170.91
2023-05-12T04:49:46.965Z,170.45
2023-05-12T04:50:46.963Z,173.42
2023-05-12T04:51:46.950Z,172.10
2023-05-12T04:52:46.952Z,172.83
2023-05-12T04:53:46.919Z,175.94
2023-05-12T04:54:46.920Z,174.06
2023-05-12T04:55:46.919Z,174.13
2023-05-12T04:56:46.942Z,173.81
2023-05-12T04:57:46.914Z,176.39
2023-05-12T04:58:46.892Z,177.57
2023-05-12T04:59:46.901Z,177.80
2023-05-12T05:00:46.901Z,176.57
2023-05-12T05:01:47.117Z,178.13
2023-05-12T05:02:46.950Z,179.59
2023-05-12T05:03:46.956Z,179.46
2023-05-12T05:04:46.879Z,177.79
2023-05-12T05:05:46.866Z,176.37
2023-05-12T05:06:46.864Z,176.95
2023-05-12T05:07:46.858Z,178.14
2023-05-12T05:08:46.834Z,177.98
2023-05-12T05:09:46.822Z,177.97
2023-05-12T05:10:46.825Z,179.04
2023-05-12T05:11:46.822Z,178.06
2023-05-12T05:12:46.841Z,176.61
2023-05-12T05:13:46.798Z,177.67
2023-05-12T05:14:46.810Z,177.29
2023-05-12T05:15:46.867Z,178.42
2023-05-12T05:16:46.815Z,178.75
2023-05-12T05:17:46.811Z,179.87
2023-05-12T05:18:47.007Z,179.43
2023-05-12T05:19:57.205Z,178.02
2023-05-12T05:20:56.080Z,178.28
2023-05-12T05:21:47.751Z,178.37
2023-05-12T05:22:46.726Z,178.78
2023-05-12T05:23:46.716Z,179.62
2023-05-12T05:24:46.721Z,179.71
2023-05-12T05:25:46.697Z,179.87
2023-05-12T05:26:46.694Z,177.67
2023-05-12T05:27:47.008Z,176.07
2023-05-12T05:28:46.693Z,180.05
2023-05-12T05:29:46.686Z,177.25
2023-05-12T05:30:46.664Z,179.78
2023-05-12T05:31:46.739Z,169.70
2023-05-12T05:32:47.044Z,161.98
2023-05-12T05:33:46.666Z,155.40
2023-05-12T05:34:46.641Z,149.32
2023-05-12T05:35:46.685Z,140.95
2023-05-12T05:36:46.630Z,140.36
2023-05-12T05:37:46.648Z,136.62
2023-05-12T05:38:46.622Z,131.46
2023-05-12T05:39:46.600Z,118.16
2023-05-12T05:40:53.615Z,119.90
2023-05-12T05:41:47.611Z,110.58
2023-05-12T05:42:46.580Z,105.56
2023-05-12T05:43:46.612Z,101.91
2023-05-12T05:44:46.587Z,102.60
2023-05-12T05:45:46.559Z,116.60
2023-05-12T05:46:46.599Z,126.74
2023-05-12T05:47:47.038Z,137.03
2023-05-12T05:48:46.542Z,149.74
2023-05-12T05:49:46.568Z,155.86
2023-05-12T05:50:46.542Z,165.39
2023-05-12T05:51:46.536Z,170.48
2023-05-12T05:52:46.534Z,177.85
2023-05-12T05:53:46.515Z,189.29
2023-05-12T05:54:46.498Z,193.45
2023-05-12T05:55:46.483Z,198.88
2023-05-12T05:56:46.561Z,203.86
2023-05-12T05:57:46.595Z,211.48
2023-05-12T05:58:46.608Z,219.01
2023-05-12T05:59:46.661Z,224.72
2023-05-12T06:00:46.707Z,229.99
2023-05-12T06:01:46.728Z,237.24
2023-05-12T06:02:47.055Z,243.83
2023-05-12T06:03:46.868Z,249.37
2023-05-12T06:04:46.761Z,250.32
2023-05-12T06:05:46.797Z,250.00
2023-05-12T06:06:46.782Z,248.47
2023-05-12T06:07:46.784Z,248.37
2023-05-12T06:08:46.801Z,250.73
2023-05-12T06:09:46.801Z,247.91
2023-05-12T06:10:46.793Z,250.00
2023-05-12T06:11:46.786Z,249.66
2023-05-12T06:12:46.811Z,249.50
2023-05-12T06:13:46.805Z,249.47
2023-05-12T06:14:46.778Z,250.00
2023-05-12T06:15:46.792Z,248.67
2023-05-12T06:16:46.954Z,249.11
2023-05-12T06:17:46.831Z,249.96
2023-05-12T06:18:46.848Z,247.60
2023-05-12T06:19:46.807Z,248.33
2023-05-12T06:20:46.792Z,248.86
2023-05-12T06:21:46.814Z,250.11
2023-05-12T06:22:46.836Z,248.18
2023-05-12T06:23:46.879Z,248.78
2023-05-12T06:24:46.868Z,237.64
2023-05-12T06:25:46.883Z,232.88
2023-05-12T06:26:46.907Z,234.85
2023-05-12T06:27:46.910Z,239.22
2023-05-12T06:28:46.937Z,239.11
2023-05-12T06:29:46.962Z,242.71
2023-05-12T06:30:46.997Z,245.95
2023-05-12T06:31:47.127Z,245.75
2023-05-12T06:32:47.686Z,242.37
2023-05-12T06:33:47.213Z,235.72
2023-05-12T06:34:47.285Z,224.61
2023-05-12T06:35:47.277Z,222.23
2023-05-12T06:36:47.312Z,215.68
2023-05-12T06:37:47.376Z,207.20
2023-05-12T06:38:47.407Z,203.02
2023-05-12T06:39:47.456Z,208.48
2023-05-12T06:40:47.475Z,210.81
2023-05-12T06:41:47.523Z,220.55
2023-05-12T06:42:47.591Z,229.87
2023-05-12T06:43:47.647Z,236.99
2023-05-12T06:44:47.800Z,245.15
2023-05-12T06:45:47.764Z,250.00
2023-05-12T06:46:47.900Z,250.00
2023-05-12T06:47:48.088Z,248.52
2023-05-12T06:48:47.922Z,249.00
2023-05-12T06:49:47.947Z,248.67
2023-05-12T06:50:48.014Z,247.77
2023-05-12T06:51:48.054Z,249.95
2023-05-12T06:52:48.093Z,249.04
2023-05-12T06:53:48.135Z,247.89
2023-05-12T06:54:48.152Z,232.97
2023-05-12T06:55:48.188Z,207.67
2023-05-12T06:56:48.252Z,194.47
2023-05-12T06:57:48.524Z,187.84
2023-05-12T06:58:48.328Z,186.75
2023-05-12T06:59:48.375Z,174.55
2023-05-12T07:00:48.405Z,166.95
2023-05-12T07:01:48.491Z,164.46
2023-05-12T07:02:48.525Z,167.23
2023-05-12T07:03:48.488Z,161.92
2023-05-12T07:04:48.526Z,152.02
2023-05-12T07:05:48.546Z,153.04
2023-05-12T07:06:48.570Z,155.25
2023-05-12T07:07:48.584Z,160.39
2023-05-12T07:08:48.588Z,157.20
2023-05-12T07:09:48.611Z,151.26
2023-05-12T07:10:48.652Z,158.35
2023-05-12T07:11:48.656Z,163.87
2023-05-12T07:12:48.708Z,165.01
2023-05-12T07:13:48.700Z,168.85
2023-05-12T07:14:48.740Z,168.67
2023-05-12T07:15:48.753Z,174.64
2023-05-12T07:16:48.767Z,176.06
2023-05-12T07:17:50.157Z,179.69
2023-05-12T07:18:48.837Z,176.58
2023-05-12T07:19:48.867Z,160.71
2023-05-12T07:20:48.877Z,170.25
2023-05-12T07:21:48.892Z,169.14
2023-05-12T07:22:48.897Z,177.70
2023-05-12T07:23:48.934Z,169.24
2023-05-12T07:24:48.964Z,162.71
2023-05-12T07:25:48.958Z,147.22
2023-05-12T07:26:48.977Z,123.56
2023-05-12T07:27:49.028Z,107.35
2023-05-12T07:28:49.059Z,98.07
2023-05-12T07:29:49.100Z,93.03
2023-05-12T07:30:49.158Z,79.81
2023-05-12T07:31:49.283Z,54.66
2023-05-12T07:32:49.290Z,44.62
2023-05-12T07:33:49.542Z,46.31
2023-05-12T07:34:49.275Z,56.71
2023-05-12T07:35:49.293Z,64.00
2023-05-12T07:36:49.333Z,71.81
2023-05-12T07:37:49.351Z,81.84
2023-05-12T07:38:49.545Z,94.22
2023-05-12T07:39:49.460Z,106.97
2023-05-12T07:40:49.537Z,121.25
2023-05-12T07:41:49.573Z,135.62
2023-05-12T07:42:50.057Z,144.17
2023-05-12T07:43:49.678Z,149.54
2023-05-12T07:44:49.731Z,152.99
2023-05-12T07:45:49.740Z,162.81
2023-05-12T07:46:49.887Z,166.65
2023-05-12T07:47:49.835Z,170.56
2023-05-12T07:48:49.863Z,175.84
2023-05-12T07:49:49.865Z,174.45
2023-05-12T07:50:49.904Z,174.44
2023-05-12T07:51:49.936Z,176.71
2023-05-12T07:52:50.092Z,160.59
2023-05-12T07:53:49.979Z,136.87
2023-05-12T07:54:50.007Z,144.02
2023-05-12T07:55:50.024Z,134.69
2023-05-12T07:56:50.055Z,122.74
2023-05-12T07:57:50.585Z,136.89
2023-05-12T07:58:50.579Z,142.47
2023-05-12T07:59:50.151Z,148.69
2023-05-12T08:00:50.148Z,144.03
2023-05-12T08:01:50.193Z,146.15
2023-05-12T08:02:50.674Z,132.25
2023-05-12T08:03:50.688Z,117.68
2023-05-12T08:04:50.264Z,128.20
2023-05-12T08:05:50.304Z,135.69
2023-05-12T08:06:50.335Z,120.21
2023-05-12T08:07:50.349Z,106.25
2023-05-12T08:08:50.424Z,92.96
2023-05-12T08:09:50.418Z,98.13
2023-05-12T08:10:50.439Z,90.79
2023-05-12T08:11:51.625Z,95.90
2023-05-12T08:12:50.496Z,114.33
2023-05-12T08:13:50.579Z,107.91
2023-05-12T08:14:50.879Z,104.18
2023-05-12T08:15:50.596Z,114.31
2023-05-12T08:16:50.695Z,111.17
2023-05-12T08:17:50.701Z,110.31
2023-05-12T08:18:50.696Z,117.63
2023-05-12T08:19:50.713Z,119.50
2023-05-12T08:20:50.732Z,112.03
2023-05-12T08:21:50.771Z,96.49
2023-05-12T08:22:50.813Z,68.97
2023-05-12T08:23:51.078Z,49.03
2023-05-12T08:24:50.899Z,47.14
2023-05-12T08:25:50.941Z,62.41
2023-05-12T08:26:50.989Z,76.74
2023-05-12T08:27:51.045Z,90.56
2023-05-12T08:28:51.127Z,102.82
2023-05-12T08:29:51.121Z,125.87
2023-05-12T08:30:51.173Z,147.86
2023-05-12T08:31:51.196Z,159.10
2023-05-12T08:32:51.227Z,174.56
2023-05-12T08:33:59.420Z,180.76
2023-05-12T08:34:52.361Z,181.07
2023-05-12T08:35:51.221Z,180.83
2023-05-12T08:36:51.197Z,181.23
2023-05-12T08:37:51.239Z,188.94
2023-05-12T08:38:51.328Z,201.73
2023-05-12T08:39:51.334Z,199.42
2023-05-12T08:40:51.332Z,206.22
2023-05-12T08:41:51.360Z,211.29
2023-05-12T08:42:51.386Z,216.06
2023-05-12T08:43:51.574Z,221.09
2023-05-12T08:44:51.396Z,222.69
2023-05-12T08:45:51.393Z,224.95
2023-05-12T08:46:51.468Z,227.94
2023-05-12T08:47:51.495Z,227.48
2023-05-12T08:48:51.409Z,228.54
2023-05-12T08:49:52.554Z,231.39
2023-05-12T08:50:51.425Z,229.92
2023-05-12T08:51:57.726Z,230.61
2023-05-12T08:52:52.395Z,230.72
2023-05-12T08:53:51.395Z,231.14
2023-05-12T08:54:56.101Z,230.05
2023-05-12T08:57:08.992Z,230.74
2023-05-12T08:57:51.407Z,230.96
2023-05-12T08:58:51.592Z,231.76
2023-05-12T08:59:51.361Z,234.18
2023-05-12T09:00:51.348Z,238.52
2023-05-12T09:01:51.423Z,242.92
2023-05-12T09:02:53.848Z,238.54
2023-05-12T09:03:51.604Z,238.73
2023-05-12T09:04:51.460Z,238.70
2023-05-12T09:05:51.331Z,240.68
2023-05-12T09:06:52.558Z,243.91
2023-05-12T09:07:51.294Z,238.98
2023-05-12T09:08:51.589Z,240.54
2023-05-12T09:09:51.268Z,243.22
2023-05-12T09:10:51.268Z,247.64
2023-05-12T09:11:51.279Z,245.65
2023-05-12T09:12:51.249Z,247.64
2023-05-12T09:13:51.604Z,246.29
2023-05-12T09:14:51.237Z,242.12
2023-05-12T09:15:51.245Z,247.93
2023-05-12T09:16:51.296Z,249.26
2023-05-12T09:17:51.243Z,243.56
2023-05-12T09:18:51.233Z,245.21
2023-05-12T09:19:51.213Z,248.96
2023-05-12T09:20:51.218Z,249.09
2023-05-12T09:21:51.186Z,250.00
2023-05-12T09:22:51.409Z,250.00
2023-05-12T09:23:51.583Z,245.35
2023-05-12T09:24:51.175Z,243.05
2023-05-12T09:25:51.180Z,244.57
2023-05-12T09:26:51.182Z,241.18
2023-05-12T09:27:51.154Z,243.14
2023-05-12T09:28:51.158Z,241.09
2023-05-12T09:29:58.466Z,242.89
2023-05-12T09:30:52.130Z,216.62
2023-05-12T09:31:51.171Z,197.06
2023-05-12T09:32:51.124Z,206.17
2023-05-12T09:33:51.634Z,214.12
2023-05-12T09:34:51.106Z,216.84
2023-05-12T09:35:51.102Z,219.59
2023-05-12T09:36:51.120Z,222.86
2023-05-12T09:37:51.199Z,221.97
2023-05-12T09:38:51.151Z,226.22
2023-05-12T09:39:51.084Z,225.60
2023-05-12T09:40:51.077Z,226.43
2023-05-12T09:41:51.056Z,218.72
2023-05-12T09:42:51.095Z,193.03
2023-05-12T09:43:51.598Z,173.91
2023-05-12T09:44:51.207Z,162.99
2023-05-12T09:45:51.306Z,142.01
2023-05-12T09:46:51.390Z,130.10
2023-05-12T09:47:51.453Z,120.60
2023-05-12T09:48:51.614Z,112.49
2023-05-12T09:49:51.497Z,106.82
2023-05-12T09:50:51.565Z,103.67
2023-05-12T09:51:51.615Z,97.95
2023-05-12T09:52:51.687Z,94.61
2023-05-12T09:53:52.094Z,85.94
2023-05-12T09:54:51.789Z,90.02
2023-05-12T09:55:51.881Z,93.73
2023-05-12T09:56:51.899Z,116.66
2023-05-12T09:57:51.969Z,137.50
2023-05-12T09:58:52.022Z,149.64
2023-05-12T09:59:52.088Z,154.80
2023-05-12T10:01:13.554Z,159.33
2023-05-12T10:01:53.163Z,159.41
2023-05-12T10:02:52.160Z,159.22
2023-05-12T10:03:52.109Z,159.21
2023-05-12T10:04:52.145Z,160.10
2023-05-12T10:05:52.124Z,158.37
2023-05-12T10:06:52.092Z,163.05
2023-05-12T10:07:52.077Z,163.30
2023-05-12T10:08:52.115Z,161.78
2023-05-12T10:09:52.083Z,162.49
2023-05-12T10:10:52.123Z,161.75
2023-05-12T10:11:53.697Z,163.47
2023-05-12T10:12:52.226Z,165.41
2023-05-12T10:13:52.615Z,167.35
2023-05-12T10:14:52.341Z,166.44
2023-05-12T10:15:52.381Z,169.11
2023-05-12T10:16:52.462Z,167.35
2023-05-12T10:17:53.911Z,168.02
2023-05-12T10:18:52.546Z,167.71
2023-05-12T10:19:52.572Z,169.43
2023-05-12T10:20:52.651Z,169.91
2023-05-12T10:21:52.682Z,170.85
2023-05-12T10:22:52.754Z,171.51
2023-05-12T10:23:53.149Z,170.46
2023-05-12T10:24:52.825Z,174.48
2023-05-12T10:25:53.003Z,171.88
2023-05-12T10:26:52.956Z,170.00
2023-05-12T10:27:52.981Z,168.92
2023-05-12T10:28:53.031Z,169.74
2023-05-12T10:29:53.718Z,171.48
2023-05-12T10:30:53.179Z,171.30
2023-05-12T10:31:53.215Z,169.68
2023-05-12T10:32:53.279Z,166.72
2023-05-12T10:33:53.285Z,166.30
2023-05-12T10:34:53.312Z,166.96
2023-05-12T10:35:53.384Z,166.96
2023-05-12T10:36:53.421Z,166.70
2023-05-12T10:37:53.453Z,166.44
2023-05-12T10:38:53.531Z,166.85
2023-05-12T10:39:53.562Z,168.31
2023-05-12T10:40:53.602Z,168.45
2023-05-12T10:41:53.693Z,165.63
2023-05-12T10:42:53.749Z,166.71
2023-05-12T10:43:53.748Z,166.30
2023-05-12T10:44:53.827Z,168.57
2023-05-12T10:45:53.872Z,168.92
2023-05-12T10:46:53.926Z,168.69
2023-05-12T10:47:54.006Z,166.55
2023-05-12T10:48:54.030Z,168.40
2023-05-12T10:49:54.065Z,168.25
2023-05-12T10:50:54.118Z,163.08
2023-05-12T10:51:54.160Z,162.81
2023-05-12T10:52:54.202Z,161.28
2023-05-12T10:53:55.034Z,159.84
2023-05-12T10:54:54.286Z,163.29
2023-05-12T10:55:54.479Z,162.51
2023-05-12T10:56:54.534Z,161.83
2023-05-12T10:57:54.849Z,160.74
2023-05-12T10:58:54.824Z,164.36
2023-05-12T10:59:54.654Z,163.43
2023-05-12T11:00:55.562Z,161.19
2023-05-12T11:01:54.998Z,158.00
2023-05-12T11:02:59.272Z,160.65
2023-05-12T11:03:56.204Z,160.86
2023-05-12T11:04:54.820Z,161.05
2023-05-12T11:05:55.555Z,161.72
2023-05-12T11:06:54.781Z,162.77
2023-05-12T11:07:54.824Z,141.09
2023-05-12T11:08:55.146Z,115.98
2023-05-12T11:09:59.253Z,122.52
2023-05-12T11:10:55.723Z,120.36
2023-05-12T11:11:54.680Z,124.06
2023-05-12T11:12:54.591Z,127.01
2023-05-12T11:13:54.591Z,132.65
2023-05-12T11:14:54.650Z,173.01
2023-05-12T11:15:54.612Z,154.22
2023-05-12T11:16:54.591Z,155.05
2023-05-12T11:17:54.607Z,158.37
2023-05-12T11:18:54.625Z,164.10
2023-05-12T11:19:54.685Z,173.31
2023-05-12T11:20:54.540Z,175.43
2023-05-12T11:21:54.555Z,170.27
2023-05-12T11:22:54.604Z,174.54
2023-05-12T11:23:54.643Z,177.89
2023-05-12T11:24:55.186Z,181.15
2023-05-12T11:25:54.792Z,191.70
2023-05-12T11:26:54.791Z,201.70
2023-05-12T11:27:54.824Z,205.70
2023-05-12T11:28:54.878Z,207.19
2023-05-12T11:29:54.934Z,210.59
2023-05-12T11:30:55.818Z,216.91
2023-05-12T11:31:55.110Z,221.32
2023-05-12T11:32:55.124Z,224.90
2023-05-12T11:34:08.249Z,226.88
2023-05-12T11:34:56.201Z,227.06
2023-05-12T11:35:55.146Z,228.06
2023-05-12T11:36:55.134Z,230.40
2023-05-12T11:37:55.142Z,234.03
2023-05-12T11:38:55.130Z,240.12
2023-05-12T11:39:55.111Z,243.61
2023-05-12T11:40:55.096Z,243.79
2023-05-12T11:42:05.553Z,244.75
2023-05-12T11:42:56.180Z,244.96
2023-05-12T11:43:55.090Z,245.52
2023-05-12T11:44:55.078Z,246.43
2023-05-12T11:45:55.092Z,247.33
2023-05-12T11:46:55.059Z,251.19
2023-05-12T11:47:55.788Z,246.29
2023-05-12T11:48:55.056Z,245.91
2023-05-12T11:49:55.050Z,242.34
2023-05-12T11:50:55.039Z,237.70
2023-05-12T11:51:55.064Z,237.10
2023-05-12T11:52:55.110Z,234.42
2023-05-12T11:53:55.171Z,234.13
2023-05-12T11:54:55.242Z,229.61
2023-05-12T11:55:55.280Z,227.65
2023-05-12T11:56:55.320Z,223.52
2023-05-12T11:57:55.357Z,216.67
2023-05-12T11:58:55.385Z,218.38
2023-05-12T11:59:55.431Z,216.23
2023-05-12T12:00:55.486Z,208.09
2023-05-12T12:01:55.557Z,203.65
2023-05-12T12:02:55.660Z,197.70
2023-05-12T12:03:55.762Z,201.01
2023-05-12T12:04:55.667Z,196.31
2023-05-12T12:05:55.663Z,193.55
2023-05-12T12:06:55.717Z,193.37
2023-05-12T12:07:55.745Z,187.42
2023-05-12T12:08:55.801Z,181.48
2023-05-12T12:09:56.158Z,181.48
2023-05-12T12:10:55.904Z,177.20
2023-05-12T12:11:55.912Z,173.08
2023-05-12T12:12:55.950Z,175.10
2023-05-12T12:13:56.001Z,170.33
2023-05-12T12:14:56.055Z,171.59
2023-05-12T12:15:56.117Z,161.28
2023-05-12T12:16:56.129Z,154.74
2023-05-12T12:17:56.256Z,155.02
2023-05-12T12:18:56.268Z,151.30
2023-05-12T12:19:56.298Z,150.67
2023-05-12T12:20:56.337Z,148.72
2023-05-12T12:21:56.336Z,151.47
2023-05-12T12:22:56.414Z,149.19
2023-05-12T12:23:56.429Z,142.50
2023-05-12T12:24:56.478Z,142.83
2023-05-12T12:25:56.478Z,140.88
2023-05-12T12:26:56.508Z,138.34
2023-05-12T12:27:56.544Z,128.62
2023-05-12T12:28:56.567Z,132.93
2023-05-12T12:29:56.605Z,130.41
2023-05-12T12:30:56.637Z,125.15
2023-05-12T12:31:56.662Z,121.27